sensor_id;sensor_type;location;lat;lon;timestamp;temperature;humidity
21891;DHT22;11110;52.386;16.940;2023-02-01T00:01:31;18.20;44.70
21891;DHT22;11110;52.386;16.940;2023-02-01T00:03:59;18.00;44.70
21891;DHT22;11110;52.386;16.940;2023-02-01T00:06:28;18.10;44.30
21891;DHT22;11110;52.386;16.940;2023-02-01T00:08:56;18.00;44.30
21891;DHT22;11110;52.386;16.940;2023-02-01T00:11:27;18.00;44.60
21891;DHT22;11110;52.386;16.940;2023-02-01T00:13:56;17.80;44.40
21891;DHT22;11110;52.386;16.940;2023-02-01T00:16:26;17.80;44.50
21891;DHT22;11110;52.386;16.940;2023-02-01T00:18:58;17.80;44.40
21891;DHT22;11110;52.386;16.940;2023-02-01T00:21:27;18.00;44.10
21891;DHT22;11110;52.386;16.940;2023-02-01T00:23:56;18.00;44.80
21891;DHT22;11110;52.386;16.940;2023-02-01T00:26:30;18.00;44.00
21891;DHT22;11110;52.386;16.940;2023-02-01T00:28:59;18.20;44.00
21891;DHT22;11110;52.386;16.940;2023-02-01T00:31:28;18.10;43.80
21891;DHT22;11110;52.386;16.940;2023-02-01T00:33:57;18.10;43.80
21891;DHT22;11110;52.386;16.940;2023-02-01T00:36:25;18.10;43.70
21891;DHT22;11110;52.386;16.940;2023-02-01T00:38:55;18.00;43.90
21891;DHT22;11110;52.386;16.940;2023-02-01T00:41:27;18.00;43.90
21891;DHT22;11110;52.386;16.940;2023-02-01T00:43:55;18.20;43.70
21891;DHT22;11110;52.386;16.940;2023-02-01T00:46:24;18.10;43.60
21891;DHT22;11110;52.386;16.940;2023-02-01T00:48:53;17.90;43.70
21891;DHT22;11110;52.386;16.940;2023-02-01T00:51:24;18.30;43.40
21891;DHT22;11110;52.386;16.940;2023-02-01T00:53:55;18.20;43.30
21891;DHT22;11110;52.386;16.940;2023-02-01T00:56:24;18.20;43.20
21891;DHT22;11110;52.386;16.940;2023-02-01T00:58:55;18.30;43.50
21891;DHT22;11110;52.386;16.940;2023-02-01T01:01:26;18.00;43.50
21891;DHT22;11110;52.386;16.940;2023-02-01T01:03:56;18.20;43.30
21891;DHT22;11110;52.386;16.940;2023-02-01T01:06:27;18.10;43.20
21891;DHT22;11110;52.386;16.940;2023-02-01T01:08:57;18.10;43.20
21891;DHT22;11110;52.386;16.940;2023-02-01T01:11:28;18.00;43.10
21891;DHT22;11110;52.386;16.940;2023-02-01T01:13:59;18.00;43.20
21891;DHT22;11110;52.386;16.940;2023-02-01T01:16:30;18.00;43.40
21891;DHT22;11110;52.386;16.940;2023-02-01T01:18:59;18.10;43.00
21891;DHT22;11110;52.386;16.940;2023-02-01T01:21:28;18.10;43.10
21891;DHT22;11110;52.386;16.940;2023-02-01T01:23:57;18.10;43.20
21891;DHT22;11110;52.386;16.940;2023-02-01T01:26:28;18.30;43.00
21891;DHT22;11110;52.386;16.940;2023-02-01T01:28:59;18.10;43.00
21891;DHT22;11110;52.386;16.940;2023-02-01T01:31:28;18.70;43.00
21891;DHT22;11110;52.386;16.940;2023-02-01T01:33:58;18.30;42.70
21891;DHT22;11110;52.386;16.940;2023-02-01T01:36:29;18.20;42.70
21891;DHT22;11110;52.386;16.940;2023-02-01T01:38:57;18.10;43.00
21891;DHT22;11110;52.386;16.940;2023-02-01T01:41:30;18.10;42.80
21891;DHT22;11110;52.386;16.940;2023-02-01T01:46:50;18.00;43.00
21891;DHT22;11110;52.386;16.940;2023-02-01T01:49:22;18.00;42.90
21891;DHT22;11110;52.386;16.940;2023-02-01T01:51:55;18.10;42.60
21891;DHT22;11110;52.386;16.940;2023-02-01T01:54:26;18.00;42.80
21891;DHT22;11110;52.386;16.940;2023-02-01T01:56:57;18.30;42.60
21891;DHT22;11110;52.386;16.940;2023-02-01T01:59:27;18.10;42.70
21891;DHT22;11110;52.386;16.940;2023-02-01T02:01:56;18.00;42.70
21891;DHT22;11110;52.386;16.940;2023-02-01T02:04:25;18.10;42.80
21891;DHT22;11110;52.386;16.940;2023-02-01T02:06:57;18.00;42.40
21891;DHT22;11110;52.386;16.940;2023-02-01T02:09:27;17.90;42.70
21891;DHT22;11110;52.386;16.940;2023-02-01T02:11:56;18.00;42.80
21891;DHT22;11110;52.386;16.940;2023-02-01T02:14:27;18.20;42.40
21891;DHT22;11110;52.386;16.940;2023-02-01T02:17:08;18.00;42.50
21891;DHT22;11110;52.386;16.940;2023-02-01T02:20:06;18.00;42.20
21891;DHT22;11110;52.386;16.940;2023-02-01T02:22:56;18.00;42.40
21891;DHT22;11110;52.386;16.940;2023-02-01T02:31:58;18.00;42.10
21891;DHT22;11110;52.386;16.940;2023-02-01T02:34:34;18.00;42.10
21891;DHT22;11110;52.386;16.940;2023-02-01T02:37:16;18.00;42.00
21891;DHT22;11110;52.386;16.940;2023-02-01T02:39:53;18.00;42.00
21891;DHT22;11110;52.386;16.940;2023-02-01T02:42:28;17.90;41.90
21891;DHT22;11110;52.386;16.940;2023-02-01T02:45:19;17.90;42.00
21891;DHT22;11110;52.386;16.940;2023-02-01T02:48:12;17.80;42.30
21891;DHT22;11110;52.386;16.940;2023-02-01T02:50:50;17.90;42.40
21891;DHT22;11110;52.386;16.940;2023-02-01T02:53:41;18.00;42.10
21891;DHT22;11110;52.386;16.940;2023-02-01T02:56:29;18.10;41.90
21891;DHT22;11110;52.386;16.940;2023-02-01T02:59:19;18.00;42.10
21891;DHT22;11110;52.386;16.940;2023-02-01T03:02:06;18.20;41.80
21891;DHT22;11110;52.386;16.940;2023-02-01T03:04:53;18.00;41.80
21891;DHT22;11110;52.386;16.940;2023-02-01T03:07:52;18.10;41.70
21891;DHT22;11110;52.386;16.940;2023-02-01T03:10:29;18.30;41.30
21891;DHT22;11110;52.386;16.940;2023-02-01T03:13:03;18.30;41.50
21891;DHT22;11110;52.386;16.940;2023-02-01T03:15:36;18.10;41.50
21891;DHT22;11110;52.386;16.940;2023-02-01T03:18:13;18.20;41.40
21891;DHT22;11110;52.386;16.940;2023-02-01T03:20:46;18.30;41.50
21891;DHT22;11110;52.386;16.940;2023-02-01T03:23:19;18.10;41.40
21891;DHT22;11110;52.386;16.940;2023-02-01T03:25:51;18.10;41.40
21891;DHT22;11110;52.386;16.940;2023-02-01T03:28:23;18.10;41.60
21891;DHT22;11110;52.386;16.940;2023-02-01T03:30:54;18.10;41.60
21891;DHT22;11110;52.386;16.940;2023-02-01T03:33:25;17.90;41.80
21891;DHT22;11110;52.386;16.940;2023-02-01T03:35:59;18.00;41.80
21891;DHT22;11110;52.386;16.940;2023-02-01T03:38:33;18.10;41.90
21891;DHT22;11110;52.386;16.940;2023-02-01T03:41:12;18.30;41.50
21891;DHT22;11110;52.386;16.940;2023-02-01T03:43:53;18.10;41.50
21891;DHT22;11110;52.386;16.940;2023-02-01T03:46:29;18.10;41.70
21891;DHT22;11110;52.386;16.940;2023-02-01T03:49:05;18.10;41.60
21891;DHT22;11110;52.386;16.940;2023-02-01T03:51:36;18.20;41.60
21891;DHT22;11110;52.386;16.940;2023-02-01T03:54:11;18.30;41.40
21891;DHT22;11110;52.386;16.940;2023-02-01T03:56:44;18.30;41.40
21891;DHT22;11110;52.386;16.940;2023-02-01T03:59:15;18.40;41.40
21891;DHT22;11110;52.386;16.940;2023-02-01T04:01:43;18.40;41.20
21891;DHT22;11110;52.386;16.940;2023-02-01T04:04:12;18.50;41.10
21891;DHT22;11110;52.386;16.940;2023-02-01T04:06:50;18.70;40.80
21891;DHT22;11110;52.386;16.940;2023-02-01T04:09:21;18.40;40.80
21891;DHT22;11110;52.386;16.940;2023-02-01T04:11:49;18.40;41.00
21891;DHT22;11110;52.386;16.940;2023-02-01T04:14:18;18.30;41.10
21891;DHT22;11110;52.386;16.940;2023-02-01T04:16:47;18.30;41.00
21891;DHT22;11110;52.386;16.940;2023-02-01T04:19:15;18.60;40.80
21891;DHT22;11110;52.386;16.940;2023-02-01T04:21:44;18.30;40.70
21891;DHT22;11110;52.386;16.940;2023-02-01T04:24:12;18.40;40.60
21891;DHT22;11110;52.386;16.940;2023-02-01T04:26:42;18.30;40.80
21891;DHT22;11110;52.386;16.940;2023-02-01T04:29:11;18.40;40.80
21891;DHT22;11110;52.386;16.940;2023-02-01T04:31:40;18.40;40.40
21891;DHT22;11110;52.386;16.940;2023-02-01T04:34:09;18.30;40.40
21891;DHT22;11110;52.386;16.940;2023-02-01T04:36:37;18.40;40.30
21891;DHT22;11110;52.386;16.940;2023-02-01T04:39:06;18.40;40.50
21891;DHT22;11110;52.386;16.940;2023-02-01T04:41:34;18.50;40.50
21891;DHT22;11110;52.386;16.940;2023-02-01T04:44:04;18.40;40.40
21891;DHT22;11110;52.386;16.940;2023-02-01T04:46:33;18.30;40.60
21891;DHT22;11110;52.386;16.940;2023-02-01T04:49:02;18.50;40.40
21891;DHT22;11110;52.386;16.940;2023-02-01T04:51:30;18.40;40.40
21891;DHT22;11110;52.386;16.940;2023-02-01T04:53:59;18.30;40.50
21891;DHT22;11110;52.386;16.940;2023-02-01T04:56:28;18.30;40.70
21891;DHT22;11110;52.386;16.940;2023-02-01T04:58:57;18.50;40.40
21891;DHT22;11110;52.386;16.940;2023-02-01T05:01:27;18.60;40.30
21891;DHT22;11110;52.386;16.940;2023-02-01T05:03:55;18.60;40.20
21891;DHT22;11110;52.386;16.940;2023-02-01T05:06:24;18.50;40.50
21891;DHT22;11110;52.386;16.940;2023-02-01T05:08:53;18.50;40.50
21891;DHT22;11110;52.386;16.940;2023-02-01T05:11:21;18.60;40.40
21891;DHT22;11110;52.386;16.940;2023-02-01T05:14:08;18.60;40.00
21891;DHT22;11110;52.386;16.940;2023-02-01T05:16:37;18.50;40.30
21891;DHT22;11110;52.386;16.940;2023-02-01T05:19:06;18.80;39.80
21891;DHT22;11110;52.386;16.940;2023-02-01T05:21:34;18.50;40.00
21891;DHT22;11110;52.386;16.940;2023-02-01T05:24:04;18.70;39.90
21891;DHT22;11110;52.386;16.940;2023-02-01T05:26:40;18.70;40.00
21891;DHT22;11110;52.386;16.940;2023-02-01T05:29:10;18.30;40.60
21891;DHT22;11110;52.386;16.940;2023-02-01T05:31:40;18.60;40.00
21891;DHT22;11110;52.386;16.940;2023-02-01T05:34:09;18.60;40.20
21891;DHT22;11110;52.386;16.940;2023-02-01T05:36:38;18.60;40.30
21891;DHT22;11110;52.386;16.940;2023-02-01T05:39:07;18.60;40.00
21891;DHT22;11110;52.386;16.940;2023-02-01T05:41:37;18.80;40.00
21891;DHT22;11110;52.386;16.940;2023-02-01T05:44:06;18.80;40.10
21891;DHT22;11110;52.386;16.940;2023-02-01T05:46:35;18.70;40.00
21891;DHT22;11110;52.386;16.940;2023-02-01T05:49:05;18.60;40.00
21891;DHT22;11110;52.386;16.940;2023-02-01T05:51:34;18.80;39.80
21891;DHT22;11110;52.386;16.940;2023-02-01T05:54:03;18.60;40.00
21891;DHT22;11110;52.386;16.940;2023-02-01T05:56:32;18.80;39.90
21891;DHT22;11110;52.386;16.940;2023-02-01T05:59:00;18.70;40.00
21891;DHT22;11110;52.386;16.940;2023-02-01T06:01:29;18.70;40.10
21891;DHT22;11110;52.386;16.940;2023-02-01T06:03:57;18.60;40.20
21891;DHT22;11110;52.386;16.940;2023-02-01T06:06:27;18.70;40.10
21891;DHT22;11110;52.386;16.940;2023-02-01T06:08:56;18.70;40.10
21891;DHT22;11110;52.386;16.940;2023-02-01T06:11:25;18.60;40.40
21891;DHT22;11110;52.386;16.940;2023-02-01T06:13:59;18.80;40.40
21891;DHT22;11110;52.386;16.940;2023-02-01T06:16:28;19.10;40.00
21891;DHT22;11110;52.386;16.940;2023-02-01T06:18:57;18.90;40.10
21891;DHT22;11110;52.386;16.940;2023-02-01T06:21:26;18.80;40.20
21891;DHT22;11110;52.386;16.940;2023-02-01T06:23:56;19.00;39.80
21891;DHT22;11110;52.386;16.940;2023-02-01T06:26:25;18.80;40.10
21891;DHT22;11110;52.386;16.940;2023-02-01T06:28:56;18.70;40.30
21891;DHT22;11110;52.386;16.940;2023-02-01T06:31:24;18.60;40.40
21891;DHT22;11110;52.386;16.940;2023-02-01T06:33:54;18.70;40.60
21891;DHT22;11110;52.386;16.940;2023-02-01T06:36:22;18.80;40.50
21891;DHT22;11110;52.386;16.940;2023-02-01T06:38:52;18.60;40.70
21891;DHT22;11110;52.386;16.940;2023-02-01T06:41:23;18.60;40.80
21891;DHT22;11110;52.386;16.940;2023-02-01T06:43:55;18.60;40.80
21891;DHT22;11110;52.386;16.940;2023-02-01T06:46:24;18.60;40.90
21891;DHT22;11110;52.386;16.940;2023-02-01T06:48:53;18.50;41.20
21891;DHT22;11110;52.386;16.940;2023-02-01T06:51:23;18.70;41.00
21891;DHT22;11110;52.386;16.940;2023-02-01T06:53:54;18.80;41.00
21891;DHT22;11110;52.386;16.940;2023-02-01T06:56:23;18.80;41.20
21891;DHT22;11110;52.386;16.940;2023-02-01T06:58:53;18.70;41.30
21891;DHT22;11110;52.386;16.940;2023-02-01T07:01:21;18.50;41.40
21891;DHT22;11110;52.386;16.940;2023-02-01T07:03:50;18.60;41.60
21891;DHT22;11110;52.386;16.940;2023-02-01T07:06:19;18.70;41.50
21891;DHT22;11110;52.386;16.940;2023-02-01T07:08:48;18.60;41.50
21891;DHT22;11110;52.386;16.940;2023-02-01T07:11:19;18.60;41.50
21891;DHT22;11110;52.386;16.940;2023-02-01T07:13:48;18.80;41.60
21891;DHT22;11110;52.386;16.940;2023-02-01T07:16:18;18.90;41.40
21891;DHT22;11110;52.386;16.940;2023-02-01T07:18:47;18.90;41.50
21891;DHT22;11110;52.386;16.940;2023-02-01T07:21:17;18.90;41.30
21891;DHT22;11110;52.386;16.940;2023-02-01T07:23:46;18.90;41.40
21891;DHT22;11110;52.386;16.940;2023-02-01T07:26:14;19.00;41.80
21891;DHT22;11110;52.386;16.940;2023-02-01T07:28:45;18.90;41.90
21891;DHT22;11110;52.386;16.940;2023-02-01T07:31:15;19.00;42.10
21891;DHT22;11110;52.386;16.940;2023-02-01T07:33:46;18.90;42.10
21891;DHT22;11110;52.386;16.940;2023-02-01T07:36:16;18.80;42.30
21891;DHT22;11110;52.386;16.940;2023-02-01T07:38:45;18.90;42.30
21891;DHT22;11110;52.386;16.940;2023-02-01T07:41:15;18.80;42.30
21891;DHT22;11110;52.386;16.940;2023-02-01T07:43:45;18.60;42.20
21891;DHT22;11110;52.386;16.940;2023-02-01T07:46:14;18.50;42.40
21891;DHT22;11110;52.386;16.940;2023-02-01T07:48:43;18.80;42.40
21891;DHT22;11110;52.386;16.940;2023-02-01T07:51:14;18.60;42.40
21891;DHT22;11110;52.386;16.940;2023-02-01T07:53:43;18.80;42.30
21891;DHT22;11110;52.386;16.940;2023-02-01T07:56:14;18.80;42.20
21891;DHT22;11110;52.386;16.940;2023-02-01T07:58:43;19.00;42.00
21891;DHT22;11110;52.386;16.940;2023-02-01T08:01:15;18.80;42.00
21891;DHT22;11110;52.386;16.940;2023-02-01T08:03:53;18.90;41.90
21891;DHT22;11110;52.386;16.940;2023-02-01T08:06:23;19.00;41.90
21891;DHT22;11110;52.386;16.940;2023-02-01T08:08:53;18.90;41.60
21891;DHT22;11110;52.386;16.940;2023-02-01T08:11:23;18.70;41.70
21891;DHT22;11110;52.386;16.940;2023-02-01T08:13:52;18.70;42.00
21891;DHT22;11110;52.386;16.940;2023-02-01T08:16:23;18.80;42.00
21891;DHT22;11110;52.386;16.940;2023-02-01T08:18:52;18.80;41.80
21891;DHT22;11110;52.386;16.940;2023-02-01T08:21:23;18.60;41.90
21891;DHT22;11110;52.386;16.940;2023-02-01T08:23:52;18.70;41.70
21891;DHT22;11110;52.386;16.940;2023-02-01T08:26:24;19.00;41.60
21891;DHT22;11110;52.386;16.940;2023-02-01T08:28:55;19.10;41.40
21891;DHT22;11110;52.386;16.940;2023-02-01T08:31:27;19.10;41.40
21891;DHT22;11110;52.386;16.940;2023-02-01T08:33:58;19.20;41.30
21891;DHT22;11110;52.386;16.940;2023-02-01T08:36:28;19.20;41.00
21891;DHT22;11110;52.386;16.940;2023-02-01T08:38:58;19.20;41.00
21891;DHT22;11110;52.386;16.940;2023-02-01T08:41:28;18.90;41.30
21891;DHT22;11110;52.386;16.940;2023-02-01T08:43:57;18.80;41.50
21891;DHT22;11110;52.386;16.940;2023-02-01T08:46:28;19.10;41.50
21891;DHT22;11110;52.386;16.940;2023-02-01T08:48:56;19.10;41.20
21891;DHT22;11110;52.386;16.940;2023-02-01T08:51:25;19.20;41.00
21891;DHT22;11110;52.386;16.940;2023-02-01T08:53:54;19.10;41.20
21891;DHT22;11110;52.386;16.940;2023-02-01T08:56:22;18.90;41.40
21891;DHT22;11110;52.386;16.940;2023-02-01T08:58:52;18.90;41.40
21891;DHT22;11110;52.386;16.940;2023-02-01T09:01:20;18.90;41.70
21891;DHT22;11110;52.386;16.940;2023-02-01T09:03:50;19.00;41.60
21891;DHT22;11110;52.386;16.940;2023-02-01T09:06:19;18.90;41.70
21891;DHT22;11110;52.386;16.940;2023-02-01T09:08:47;18.90;41.70
21891;DHT22;11110;52.386;16.940;2023-02-01T09:11:17;18.70;41.70
21891;DHT22;11110;52.386;16.940;2023-02-01T09:13:47;18.90;42.10
21891;DHT22;11110;52.386;16.940;2023-02-01T09:16:16;19.00;41.90
21891;DHT22;11110;52.386;16.940;2023-02-01T09:18:45;18.90;41.70
21891;DHT22;11110;52.386;16.940;2023-02-01T09:21:29;19.00;41.70
21891;DHT22;11110;52.386;16.940;2023-02-01T09:23:58;18.80;42.00
21891;DHT22;11110;52.386;16.940;2023-02-01T09:26:26;19.10;42.20
21891;DHT22;11110;52.386;16.940;2023-02-01T09:29:00;18.90;42.30
21891;DHT22;11110;52.386;16.940;2023-02-01T09:31:29;18.90;42.40
21891;DHT22;11110;52.386;16.940;2023-02-01T09:33:59;19.00;42.40
21891;DHT22;11110;52.386;16.940;2023-02-01T09:36:28;19.10;42.40
21891;DHT22;11110;52.386;16.940;2023-02-01T09:38:58;19.20;42.40
21891;DHT22;11110;52.386;16.940;2023-02-01T09:41:35;19.10;42.80
21891;DHT22;11110;52.386;16.940;2023-02-01T09:44:17;19.00;43.30
21891;DHT22;11110;52.386;16.940;2023-02-01T09:46:47;19.00;44.20
21891;DHT22;11110;52.386;16.940;2023-02-01T09:49:22;18.90;44.40
21891;DHT22;11110;52.386;16.940;2023-02-01T09:51:54;18.80;44.40
21891;DHT22;11110;52.386;16.940;2023-02-01T09:54:25;18.70;44.30
21891;DHT22;11110;52.386;16.940;2023-02-01T09:57:02;18.70;44.20
21891;DHT22;11110;52.386;16.940;2023-02-01T09:59:37;18.60;44.40
21891;DHT22;11110;52.386;16.940;2023-02-01T10:02:13;18.80;44.50
21891;DHT22;11110;52.386;16.940;2023-02-01T10:04:43;18.60;44.50
21891;DHT22;11110;52.386;16.940;2023-02-01T10:07:25;18.70;44.50
21891;DHT22;11110;52.386;16.940;2023-02-01T10:10:00;18.60;44.80
21891;DHT22;11110;52.386;16.940;2023-02-01T10:12:49;18.70;45.20
21891;DHT22;11110;52.386;16.940;2023-02-01T10:15:31;18.60;45.30
21891;DHT22;11110;52.386;16.940;2023-02-01T10:18:13;18.60;45.60
21891;DHT22;11110;52.386;16.940;2023-02-01T10:20:52;18.40;45.60
21891;DHT22;11110;52.386;16.940;2023-02-01T10:23:58;18.40;45.70
21891;DHT22;11110;52.386;16.940;2023-02-01T10:26:46;18.50;45.60
21891;DHT22;11110;52.386;16.940;2023-02-01T10:29:19;18.60;45.60
21891;DHT22;11110;52.386;16.940;2023-02-01T10:31:48;18.70;45.40
21891;DHT22;11110;52.386;16.940;2023-02-01T10:34:21;18.90;45.20
21891;DHT22;11110;52.386;16.940;2023-02-01T10:36:54;18.80;45.20
21891;DHT22;11110;52.386;16.940;2023-02-01T10:39:25;18.90;45.40
21891;DHT22;11110;52.386;16.940;2023-02-01T10:41:55;18.80;45.10
21891;DHT22;11110;52.386;16.940;2023-02-01T10:44:26;18.80;45.00
21891;DHT22;11110;52.386;16.940;2023-02-01T10:46:56;18.80;45.40
21891;DHT22;11110;52.386;16.940;2023-02-01T10:49:29;18.90;45.00
21891;DHT22;11110;52.386;16.940;2023-02-01T10:52:07;18.80;44.90
21891;DHT22;11110;52.386;16.940;2023-02-01T10:54:42;18.90;45.20
21891;DHT22;11110;52.386;16.940;2023-02-01T10:57:21;18.90;45.30
21891;DHT22;11110;52.386;16.940;2023-02-01T10:59:50;18.80;45.30
21891;DHT22;11110;52.386;16.940;2023-02-01T11:02:26;18.90;45.20
21891;DHT22;11110;52.386;16.940;2023-02-01T11:05:00;19.10;45.20
21891;DHT22;11110;52.386;16.940;2023-02-01T11:07:29;18.90;45.10
21891;DHT22;11110;52.386;16.940;2023-02-01T11:10:00;18.80;45.10
21891;DHT22;11110;52.386;16.940;2023-02-01T11:12:31;18.90;45.30
21891;DHT22;11110;52.386;16.940;2023-02-01T11:15:11;18.90;45.30
21891;DHT22;11110;52.386;16.940;2023-02-01T11:17:43;19.10;44.40
21891;DHT22;11110;52.386;16.940;2023-02-01T11:20:15;19.00;44.70
21891;DHT22;11110;52.386;16.940;2023-02-01T11:22:47;18.80;45.20
21891;DHT22;11110;52.386;16.940;2023-02-01T11:25:17;19.00;45.40
21891;DHT22;11110;52.386;16.940;2023-02-01T11:27:48;18.70;45.20
21891;DHT22;11110;52.386;16.940;2023-02-01T11:30:30;18.70;45.00
21891;DHT22;11110;52.386;16.940;2023-02-01T11:33:01;19.00;45.30
21891;DHT22;11110;52.386;16.940;2023-02-01T11:35:37;18.90;44.60
21891;DHT22;11110;52.386;16.940;2023-02-01T11:38:15;18.70;44.90
21891;DHT22;11110;52.386;16.940;2023-02-01T11:40:47;18.60;45.20
21891;DHT22;11110;52.386;16.940;2023-02-01T11:43:23;18.70;45.10
21891;DHT22;11110;52.386;16.940;2023-02-01T11:45:57;18.90;45.00
21891;DHT22;11110;52.386;16.940;2023-02-01T11:48:28;18.80;45.10
21891;DHT22;11110;52.386;16.940;2023-02-01T11:51:14;18.80;45.30
21891;DHT22;11110;52.386;16.940;2023-02-01T11:54:10;19.20;45.10
21891;DHT22;11110;52.386;16.940;2023-02-01T11:56:50;18.90;45.20
21891;DHT22;11110;52.386;16.940;2023-02-01T11:59:54;19.00;45.30
21891;DHT22;11110;52.386;16.940;2023-02-01T12:02:54;19.10;45.10
21891;DHT22;11110;52.386;16.940;2023-02-01T12:05:35;19.00;44.80
21891;DHT22;11110;52.386;16.940;2023-02-01T12:08:23;19.10;44.90
21891;DHT22;11110;52.386;16.940;2023-02-01T12:11:13;19.20;44.70
21891;DHT22;11110;52.386;16.940;2023-02-01T12:13:55;18.70;45.30
21891;DHT22;11110;52.386;16.940;2023-02-01T12:16:35;19.10;45.30
21891;DHT22;11110;52.386;16.940;2023-02-01T12:22:19;19.20;44.80
21891;DHT22;11110;52.386;16.940;2023-02-01T12:25:02;19.10;44.80
21891;DHT22;11110;52.386;16.940;2023-02-01T12:28:04;19.10;44.80
21891;DHT22;11110;52.386;16.940;2023-02-01T12:30:58;19.00;45.00
21891;DHT22;11110;52.386;16.940;2023-02-01T12:33:40;19.00;44.90
21891;DHT22;11110;52.386;16.940;2023-02-01T12:36:17;18.80;44.80
21891;DHT22;11110;52.386;16.940;2023-02-01T12:38:53;18.90;44.80
21891;DHT22;11110;52.386;16.940;2023-02-01T12:44:33;18.80;44.90
21891;DHT22;11110;52.386;16.940;2023-02-01T12:47:07;19.00;44.70
21891;DHT22;11110;52.386;16.940;2023-02-01T12:49:46;18.90;44.60
21891;DHT22;11110;52.386;16.940;2023-02-01T12:52:20;18.80;45.00
21891;DHT22;11110;52.386;16.940;2023-02-01T12:54:54;18.80;44.70
21891;DHT22;11110;52.386;16.940;2023-02-01T12:57:28;18.90;44.70
21891;DHT22;11110;52.386;16.940;2023-02-01T13:00:05;18.80;44.70
21891;DHT22;11110;52.386;16.940;2023-02-01T13:02:42;18.90;44.40
21891;DHT22;11110;52.386;16.940;2023-02-01T13:05:16;19.10;44.20
21891;DHT22;11110;52.386;16.940;2023-02-01T13:07:49;18.80;44.30
21891;DHT22;11110;52.386;16.940;2023-02-01T13:10:25;18.80;44.00
21891;DHT22;11110;52.386;16.940;2023-02-01T13:12:59;18.80;44.30
21891;DHT22;11110;52.386;16.940;2023-02-01T13:15:33;18.80;44.40
21891;DHT22;11110;52.386;16.940;2023-02-01T13:18:10;18.90;44.20
21891;DHT22;11110;52.386;16.940;2023-02-01T13:20:47;19.10;43.90
21891;DHT22;11110;52.386;16.940;2023-02-01T13:23:25;19.00;44.10
21891;DHT22;11110;52.386;16.940;2023-02-01T13:25:55;19.00;43.90
21891;DHT22;11110;52.386;16.940;2023-02-01T13:28:27;19.00;43.60
21891;DHT22;11110;52.386;16.940;2023-02-01T13:31:10;18.80;44.10
21891;DHT22;11110;52.386;16.940;2023-02-01T13:33:58;19.00;43.60
21891;DHT22;11110;52.386;16.940;2023-02-01T13:36:48;19.00;44.00
21891;DHT22;11110;52.386;16.940;2023-02-01T13:39:40;18.90;44.00
21891;DHT22;11110;52.386;16.940;2023-02-01T13:42:17;18.80;43.60
21891;DHT22;11110;52.386;16.940;2023-02-01T13:44:49;18.70;43.80
21891;DHT22;11110;52.386;16.940;2023-02-01T13:47:24;18.80;44.00
21891;DHT22;11110;52.386;16.940;2023-02-01T13:49:56;18.80;43.60
21891;DHT22;11110;52.386;16.940;2023-02-01T13:52:29;18.80;43.40
21891;DHT22;11110;52.386;16.940;2023-02-01T13:55:15;18.70;43.80
21891;DHT22;11110;52.386;16.940;2023-02-01T13:57:50;18.70;43.60
21891;DHT22;11110;52.386;16.940;2023-02-01T14:00:24;18.80;43.60
21891;DHT22;11110;52.386;16.940;2023-02-01T14:03:10;18.70;43.10
21891;DHT22;11110;52.386;16.940;2023-02-01T14:06:34;18.80;43.20
21891;DHT22;11110;52.386;16.940;2023-02-01T14:09:19;18.80;42.70
21891;DHT22;11110;52.386;16.940;2023-02-01T14:11:49;18.80;43.10
21891;DHT22;11110;52.386;16.940;2023-02-01T14:14:48;18.70;42.90
21891;DHT22;11110;52.386;16.940;2023-02-01T14:17:34;19.00;42.90
21891;DHT22;11110;52.386;16.940;2023-02-01T14:23:24;18.80;43.00
21891;DHT22;11110;52.386;16.940;2023-02-01T14:26:21;19.00;42.90
21891;DHT22;11110;52.386;16.940;2023-02-01T14:28:53;19.00;42.80
21891;DHT22;11110;52.386;16.940;2023-02-01T14:31:47;19.10;42.50
21891;DHT22;11110;52.386;16.940;2023-02-01T14:34:22;19.10;42.50
21891;DHT22;11110;52.386;16.940;2023-02-01T14:36:56;19.00;42.40
21891;DHT22;11110;52.386;16.940;2023-02-01T14:39:33;19.00;42.50
21891;DHT22;11110;52.386;16.940;2023-02-01T14:42:14;19.10;42.70
21891;DHT22;11110;52.386;16.940;2023-02-01T14:44:45;19.20;42.50
21891;DHT22;11110;52.386;16.940;2023-02-01T14:47:31;19.20;42.40
21891;DHT22;11110;52.386;16.940;2023-02-01T14:50:30;19.20;42.50
21891;DHT22;11110;52.386;16.940;2023-02-01T14:53:22;19.30;42.20
21891;DHT22;11110;52.386;16.940;2023-02-01T14:55:57;19.30;42.30
21891;DHT22;11110;52.386;16.940;2023-02-01T14:58:39;19.30;42.10
21891;DHT22;11110;52.386;16.940;2023-02-01T15:01:18;19.20;42.20
21891;DHT22;11110;52.386;16.940;2023-02-01T15:03:55;19.30;42.10
21891;DHT22;11110;52.386;16.940;2023-02-01T15:06:29;19.20;42.30
21891;DHT22;11110;52.386;16.940;2023-02-01T15:09:01;19.30;42.10
21891;DHT22;11110;52.386;16.940;2023-02-01T15:11:32;19.20;42.20
21891;DHT22;11110;52.386;16.940;2023-02-01T15:14:01;19.20;42.40
21891;DHT22;11110;52.386;16.940;2023-02-01T15:16:29;19.20;42.40
21891;DHT22;11110;52.386;16.940;2023-02-01T15:19:10;19.30;42.60
21891;DHT22;11110;52.386;16.940;2023-02-01T15:21:44;19.30;42.40
21891;DHT22;11110;52.386;16.940;2023-02-01T15:24:18;19.20;42.70
21891;DHT22;11110;52.386;16.940;2023-02-01T15:26:49;19.20;42.80
21891;DHT22;11110;52.386;16.940;2023-02-01T15:29:19;19.30;42.60
21891;DHT22;11110;52.386;16.940;2023-02-01T15:31:50;19.20;42.50
21891;DHT22;11110;52.386;16.940;2023-02-01T15:34:20;19.10;42.70
21891;DHT22;11110;52.386;16.940;2023-02-01T15:36:48;19.10;42.80
21891;DHT22;11110;52.386;16.940;2023-02-01T15:39:29;19.10;42.90
21891;DHT22;11110;52.386;16.940;2023-02-01T15:42:09;19.30;42.90
21891;DHT22;11110;52.386;16.940;2023-02-01T15:44:41;19.30;42.90
21891;DHT22;11110;52.386;16.940;2023-02-01T15:47:16;19.10;43.00
21891;DHT22;11110;52.386;16.940;2023-02-01T15:49:47;19.30;43.10
21891;DHT22;11110;52.386;16.940;2023-02-01T15:52:24;19.20;43.00
21891;DHT22;11110;52.386;16.940;2023-02-01T15:54:57;19.10;43.00
21891;DHT22;11110;52.386;16.940;2023-02-01T15:57:32;19.30;43.10
21891;DHT22;11110;52.386;16.940;2023-02-01T16:00:05;19.20;43.00
21891;DHT22;11110;52.386;16.940;2023-02-01T16:02:51;18.90;43.10
21891;DHT22;11110;52.386;16.940;2023-02-01T16:05:32;19.00;43.10
21891;DHT22;11110;52.386;16.940;2023-02-01T16:08:03;19.00;43.40
21891;DHT22;11110;52.386;16.940;2023-02-01T16:10:39;19.30;43.10
21891;DHT22;11110;52.386;16.940;2023-02-01T16:13:09;19.10;42.90
21891;DHT22;11110;52.386;16.940;2023-02-01T16:15:38;19.20;42.90